Time,TemperatureF,DewpointF,PressureIn,WindDirection,WindDirectionDegrees,WindSpeedMPH,WindSpeedGustMPH,Humidity,HourlyPrecipIn,Conditions,Clouds,dailyrainin,SoftwareType,DateUTC
2013-04-06 00:12:00,40.1,38.0,30.09,SSE,158,0.0,0.0,91,0.00,,,0.00,weatherlink.com 1.10,2013-04-06 05:12:00,
2013-04-06 00:27:00,39.8,37.0,30.09,SSE,158,0.0,0.0,91,0.00,,,0.00,weatherlink.com 1.10,2013-04-06 05:27:00,
2013-04-06 00:42:00,39.5,37.0,30.09,SSE,158,0.0,0.0,92,0.00,,,0.00,weatherlink.com 1.10,2013-04-06 05:42:00,
2013-04-06 00:58:00,39.2,37.0,30.09,SSE,158,0.0,0.0,92,0.00,,,0.00,weatherlink.com 1.10,2013-04-06 05:58:00,
2013-04-06 01:13:00,39.0,37.0,30.09,SSE,158,0.0,0.0,92,0.00,,,0.00,weatherlink.com 1.10,2013-04-06 06:13:00,
2013-04-06 01:28:00,39.0,37.0,30.09,SSE,158,0.0,0.0,93,0.00,,,0.00,weatherlink.com 1.10,2013-04-06 06:28:00,
2013-04-06 01:43:00,38.9,37.0,30.09,SSE,158,0.0,0.0,93,0.00,,,0.00,weatherlink.com 1.10,2013-04-06 06:43:00,
2013-04-06 01:58:00,39.1,37.0,30.09,SSE,158,0.0,0.0,93,0.00,,,0.00,weatherlink.com 1.10,2013-04-06 06:58:00,
2013-04-06 02:13:00,39.2,37.0,30.09,SSE,158,0.0,0.0,93,0.00,,,0.00,weatherlink.com 1.10,2013-04-06 07:13:00,
2013-04-06 02:28:00,39.2,37.0,30.09,SSE,158,0.0,0.0,93,0.00,,,0.00,weatherlink.com 1.10,2013-04-06 07:28:00,
2013-04-06 02:43:00,38.9,37.0,30.08,SSE,158,0.0,0.0,93,0.00,,,0.00,weatherlink.com 1.10,2013-04-06 07:43:00,
2013-04-06 02:58:00,38.8,37.0,30.08,SSE,158,0.0,0.0,93,0.00,,,0.00,weatherlink.com 1.10,2013-04-06 07:58:00,
2013-04-06 03:13:00,38.6,37.0,30.08,SSE,158,0.0,0.0,94,0.00,,,0.00,weatherlink.com 1.10,2013-04-06 08:13:00,
2013-04-06 03:28:00,38.4,37.0,30.08,SSE,158,0.0,0.0,94,0.00,,,0.00,weatherlink.com 1.10,2013-04-06 08:28:00,
2013-04-06 03:43:00,38.0,36.0,30.08,SSE,158,0.0,0.0,93,0.00,,,0.00,weatherlink.com 1.10,2013-04-06 08:43:00,
2013-04-06 03:58:00,37.8,36.0,30.08,SSE,158,0.0,0.0,94,0.00,,,0.00,weatherlink.com 1.10,2013-04-06 08:58:00,
2013-04-06 04:13:00,37.7,36.0,30.08,SSE,158,0.0,0.0,94,0.00,,,0.00,weatherlink.com 1.10,2013-04-06 09:13:00,
2013-04-06 04:28:00,37.7,36.0,30.07,SSE,158,0.0,0.0,95,0.00,,,0.00,weatherlink.com 1.10,2013-04-06 09:28:00,
2013-04-06 04:58:00,37.5,36.0,30.07,SSE,158,0.0,0.0,94,0.00,,,0.00,weatherlink.com 1.10,2013-04-06 09:58:00,
2013-04-06 05:13:00,37.4,36.0,30.08,SSE,158,0.0,0.0,95,0.00,,,0.00,weatherlink.com 1.10,2013-04-06 10:13:00,
2013-04-06 05:28:00,37.3,36.0,30.08,SSE,158,0.0,0.0,95,0.00,,,0.00,weatherlink.com 1.10,2013-04-06 10:28:00,
2013-04-06 05:43:00,37.0,36.0,30.08,SSE,158,0.0,0.0,94,0.00,,,0.00,weatherlink.com 1.10,2013-04-06 10:43:00,
2013-04-06 05:58:00,36.9,36.0,30.09,SSE,158,0.0,0.0,95,0.00,,,0.00,weatherlink.com 1.10,2013-04-06 10:58:00,
2013-04-06 06:13:00,36.8,36.0,30.09,SSE,158,0.0,0.0,95,0.00,,,0.00,weatherlink.com 1.10,2013-04-06 11:13:00,
2013-04-06 06:28:00,36.8,36.0,30.08,SSE,158,0.0,0.0,95,0.00,,,0.00,weatherlink.com 1.10,2013-04-06 11:28:00,
2013-04-06 06:43:00,36.6,35.0,30.08,SSE,158,0.0,0.0,95,0.00,,,0.00,weatherlink.com 1.10,2013-04-06 11:43:00,
2013-04-06 06:58:00,36.6,35.0,30.08,SSE,158,0.0,0.0,95,0.00,,,0.00,weatherlink.com 1.10,2013-04-06 11:58:00,
2013-04-06 07:28:00,37.1,36.0,30.08,SSE,158,0.0,0.0,96,0.00,,,0.00,weatherlink.com 1.10,2013-04-06 12:28:00,
2013-04-06 07:43:00,38.5,38.0,30.09,SSE,158,0.0,0.0,97,0.00,,,0.00,weatherlink.com 1.10,2013-04-06 12:43:00,
2013-04-06 07:58:00,41.4,41.0,30.09,SSE,158,0.0,0.0,97,0.00,,,0.00,weatherlink.com 1.10,2013-04-06 12:58:00,
2013-04-06 08:28:00,52.2,47.0,30.09,NNE,24,0.0,2.0,81,0.00,,,0.00,weatherlink.com 1.10,2013-04-06 13:28:00,
2013-04-06 08:43:00,56.6,46.0,30.08,North,360,0.0,3.0,69,0.00,,,0.00,weatherlink.com 1.10,2013-04-06 13:43:00,
2013-04-06 08:59:00,60.1,45.0,30.08,NE,54,1.0,7.0,58,0.00,,,0.00,weatherlink.com 1.10,2013-04-06 13:59:00,
2013-04-06 09:59:00,64.5,44.0,30.08,ENE,72,4.0,9.0,48,0.00,,,0.00,weatherlink.com 1.10,2013-04-06 14:59:00,
2013-04-06 10:14:00,64.9,44.0,30.08,NE,55,5.0,13.0,47,0.00,,,0.00,weatherlink.com 1.10,2013-04-06 15:14:00,
2013-04-06 10:29:00,65.4,43.0,30.08,ENE,59,3.0,14.0,45,0.00,,,0.00,weatherlink.com 1.10,2013-04-06 15:29:00,
2013-04-06 10:44:00,65.7,42.0,30.08,NE,53,3.0,16.0,43,0.00,,,0.00,weatherlink.com 1.10,2013-04-06 15:44:00,
2013-04-06 10:59:00,66.3,43.0,30.07,ENE,77,6.0,14.0,43,0.00,,,0.00,weatherlink.com 1.10,2013-04-06 15:59:00,
2013-04-06 11:14:00,67.6,44.0,30.06,SE,146,4.0,14.0,42,0.00,,,0.00,weatherlink.com 1.10,2013-04-06 16:14:00,
2013-04-06 11:29:00,68.2,43.0,30.06,ENE,61,5.0,15.0,40,0.00,,,0.00,weatherlink.com 1.10,2013-04-06 16:29:00,
2013-04-06 11:44:00,68.4,42.0,30.06,East,82,3.0,13.0,39,0.00,,,0.00,weatherlink.com 1.10,2013-04-06 16:44:00,
2013-04-06 11:59:00,69.2,44.0,30.05,ENE,72,6.0,11.0,40,0.00,,,0.00,weatherlink.com 1.10,2013-04-06 16:59:00,
2013-04-06 12:14:00,69.7,43.0,30.05,East,101,3.0,10.0,38,0.00,,,0.00,weatherlink.com 1.10,2013-04-06 17:14:00,
2013-04-06 12:29:00,70.0,41.0,30.04,ESE,109,8.0,15.0,35,0.00,,,0.00,weatherlink.com 1.10,2013-04-06 17:29:00,
2013-04-06 12:44:00,70.5,42.0,30.04,SE,125,12.0,16.0,36,0.00,,,0.00,weatherlink.com 1.10,2013-04-06 17:44:00,
2013-04-06 12:59:00,71.1,44.0,30.02,ENE,72,4.0,11.0,38,0.00,,,0.00,weatherlink.com 1.10,2013-04-06 17:59:00,
2013-04-06 13:17:00,71.8,41.0,30.01,ESE,104,7.0,13.0,33,0.00,,,0.00,weatherlink.com 1.10,2013-04-06 18:17:00,
2013-04-06 13:29:00,71.6,40.0,30.01,ENE,67,7.0,14.0,32,0.00,,,0.00,weatherlink.com 1.10,2013-04-06 18:29:00,
2013-04-06 13:44:00,72.1,41.0,30.00,ENE,64,6.0,17.0,33,0.00,,,0.00,weatherlink.com 1.10,2013-04-06 18:44:00,
2013-04-06 14:00:00,72.2,40.0,29.99,East,96,11.0,16.0,31,0.00,,,0.00,weatherlink.com 1.10,2013-04-06 19:00:00,
2013-04-06 14:15:00,72.4,41.0,29.98,ESE,117,5.0,17.0,32,0.00,,,0.00,weatherlink.com 1.10,2013-04-06 19:15:00,
2013-04-06 14:29:00,73.1,41.0,29.97,NE,40,7.0,16.0,31,0.00,,,0.00,weatherlink.com 1.10,2013-04-06 19:29:00,
2013-04-06 14:44:00,71.2,41.0,29.96,ESE,113,7.0,14.0,34,0.00,,,0.00,weatherlink.com 1.10,2013-04-06 19:44:00,
2013-04-06 14:59:00,71.3,40.0,29.95,SE,129,8.0,15.0,32,0.00,,,0.00,weatherlink.com 1.10,2013-04-06 19:59:00,
2013-04-06 15:15:00,71.5,40.0,29.94,ENE,72,8.0,17.0,32,0.00,,,0.00,weatherlink.com 1.10,2013-04-06 20:15:00,
2013-04-06 15:30:00,72.4,42.0,29.94,East,100,7.0,14.0,33,0.00,,,0.00,weatherlink.com 1.10,2013-04-06 20:30:00,
2013-04-06 15:45:00,73.3,41.0,29.93,NE,37,5.0,13.0,31,0.00,,,0.00,weatherlink.com 1.10,2013-04-06 20:45:00,
2013-04-06 16:00:00,73.0,41.0,29.92,SE,139,9.0,14.0,32,0.00,,,0.00,weatherlink.com 1.10,2013-04-06 21:00:00,
2013-04-06 16:15:00,72.3,39.0,29.91,ESE,103,5.0,13.0,30,0.00,,,0.00,weatherlink.com 1.10,2013-04-06 21:15:00,
2013-04-06 16:30:00,73.1,40.0,29.90,ENE,77,8.0,16.0,30,0.00,,,0.00,weatherlink.com 1.10,2013-04-06 21:30:00,
2013-04-06 16:45:00,73.4,41.0,29.90,ENE,77,8.0,12.0,31,0.00,,,0.00,weatherlink.com 1.10,2013-04-06 21:45:00,
2013-04-06 17:00:00,72.8,40.0,29.89,East,82,8.0,16.0,30,0.00,,,0.00,weatherlink.com 1.10,2013-04-06 22:00:00,
2013-04-06 17:30:00,72.0,40.0,29.89,ENE,59,10.0,16.0,31,0.00,,,0.00,weatherlink.com 1.10,2013-04-06 22:30:00,
2013-04-06 17:45:00,71.9,40.0,29.89,East,82,6.0,16.0,32,0.00,,,0.00,weatherlink.com 1.10,2013-04-06 22:45:00,
2013-04-06 18:00:00,71.5,40.0,29.89,East,88,5.0,13.0,32,0.00,,,0.00,weatherlink.com 1.10,2013-04-06 23:00:00,
2013-04-06 18:30:00,70.7,39.0,29.89,ENE,63,6.0,15.0,31,0.00,,,0.00,weatherlink.com 1.10,2013-04-06 23:30:00,
2013-04-06 18:45:00,70.1,40.0,29.88,ENE,68,3.0,11.0,33,0.00,,,0.00,weatherlink.com 1.10,2013-04-06 23:45:00,
2013-04-06 19:00:00,69.2,40.0,29.88,East,86,5.0,8.0,34,0.00,,,0.00,weatherlink.com 1.10,2013-04-07 00:00:00,
2013-04-06 19:15:00,68.1,40.0,29.89,East,82,2.0,6.0,36,0.00,,,0.00,weatherlink.com 1.10,2013-04-07 00:15:00,
2013-04-06 19:30:00,66.9,40.0,29.89,ENE,59,1.0,2.0,38,0.00,,,0.00,weatherlink.com 1.10,2013-04-07 00:30:00,
2013-04-06 19:45:00,65.4,40.0,29.89,ENE,67,2.0,6.0,40,0.00,,,0.00,weatherlink.com 1.10,2013-04-07 00:45:00,
2013-04-06 20:00:00,64.3,41.0,29.89,ENE,67,0.0,3.0,43,0.00,,,0.00,weatherlink.com 1.10,2013-04-07 01:00:00,
2013-04-06 20:15:00,62.9,41.0,29.89,NE,56,1.0,2.0,45,0.00,,,0.00,weatherlink.com 1.10,2013-04-07 01:15:00,
2013-04-06 20:30:00,63.1,41.0,29.89,ENE,57,2.0,4.0,44,0.00,,,0.00,weatherlink.com 1.10,2013-04-07 01:30:00,
2013-04-06 20:45:00,63.1,41.0,29.89,NE,50,2.0,3.0,44,0.00,,,0.00,weatherlink.com 1.10,2013-04-07 01:45:00,
2013-04-06 21:00:00,62.6,40.0,29.90,ENE,72,2.0,4.0,44,0.00,,,0.00,weatherlink.com 1.10,2013-04-07 02:00:00,
2013-04-06 21:15:00,62.4,40.0,29.90,ENE,77,1.0,5.0,44,0.00,,,0.00,weatherlink.com 1.10,2013-04-07 02:15:00,
2013-04-06 21:30:00,61.9,40.0,29.91,ENE,57,0.0,3.0,45,0.00,,,0.00,weatherlink.com 1.10,2013-04-07 02:30:00,
2013-04-06 21:45:00,60.5,41.0,29.92,NE,53,0.0,6.0,49,0.00,,,0.00,weatherlink.com 1.10,2013-04-07 02:45:00,
2013-04-06 22:00:00,60.8,41.0,29.92,NE,50,2.0,6.0,48,0.00,,,0.00,weatherlink.com 1.10,2013-04-07 03:00:00,
2013-04-06 22:15:00,61.2,42.0,29.92,East,99,2.0,9.0,49,0.00,,,0.00,weatherlink.com 1.10,2013-04-07 03:15:00,
2013-04-06 22:30:00,60.9,41.0,29.93,East,86,1.0,8.0,49,0.00,,,0.00,weatherlink.com 1.10,2013-04-07 03:30:00,
2013-04-06 22:45:00,60.3,42.0,29.94,ENE,72,3.0,4.0,51,0.00,,,0.00,weatherlink.com 1.10,2013-04-07 03:45:00,
2013-04-06 23:00:00,59.8,42.0,29.94,East,101,1.0,4.0,52,0.00,,,0.00,weatherlink.com 1.10,2013-04-07 04:00:00,
2013-04-06 23:15:00,59.1,42.0,29.94,NE,56,0.0,3.0,53,0.00,,,0.00,weatherlink.com 1.10,2013-04-07 04:15:00,
2013-04-06 23:30:00,58.8,42.0,29.94,NE,48,0.0,5.0,54,0.00,,,0.00,weatherlink.com 1.10,2013-04-07 04:30:00,
2013-04-06 23:45:00,58.6,42.0,29.94,East,82,2.0,4.0,55,0.00,,,0.00,weatherlink.com 1.10,2013-04-07 04:45:00,